Time;durP1;ratioP1;P1;durP2;ratioP2;P2;SDS_P1;SDS_P2;PMS_P1;PMS_P2;Temp;Humidity;BMP_temperature;BMP_pressure;BME280_temperature;BME280_humidity;BME280_pressure;Samples;Min_cycle;Max_cycle;Signal;HPM_P1;HPM_P2
2021/04/27 00:01:18;;;;;;;;;;;9.00;51.40;;;;;;5032955;28;19925;-64
2021/04/27 00:03:44;;;;;;;;;;;9.10;51.50;;;;;;5033167;28;19956;-64
2021/04/27 00:06:11;;;;;;;;;;;9.00;51.40;;;;;;5033384;28;19984;-63
2021/04/27 00:08:39;;;;;;;;;;;9.00;51.30;;;;;;5033469;28;19976;-63
2021/04/27 00:11:05;;;;;;;;;;;9.00;50.90;;;;;;5033175;28;19925;-63
2021/04/27 00:13:31;;;;;;;;;;;9.00;50.90;;;;;;5033418;28;19925;-63
2021/04/27 00:15:58;;;;;;;;;;;8.90;51.00;;;;;;5033062;28;20267;-62
2021/04/27 00:18:24;;;;;;;;;;;8.90;50.90;;;;;;5033607;28;20082;-63
2021/04/27 00:20:50;;;;;;;;;;;8.90;50.70;;;;;;5033004;28;20367;-63
2021/04/27 00:23:18;;;;;;;;;;;8.80;50.70;;;;;;5015966;28;19933;-63
2021/04/27 00:25:44;;;;;;;;;;;8.90;50.70;;;;;;5013401;28;19925;-64
2021/04/27 00:28:11;;;;;;;;;;;8.80;50.40;;;;;;5014847;28;19926;-64
2021/04/27 00:30:37;;;;;;;;;;;8.80;50.50;;;;;;5033414;28;19925;-62
2021/04/27 00:33:04;;;;;;;;;;;8.80;50.50;;;;;;5032812;28;20371;-64
2021/04/27 00:35:31;;;;;;;;;;;8.80;50.50;;;;;;5033188;28;19929;-64
2021/04/27 00:37:57;;;;;;;;;;;8.80;50.40;;;;;;5032810;28;19972;-63
2021/04/27 00:40:26;;;;;;;;;;;8.70;50.30;;;;;;5033028;28;19984;-64
2021/04/27 00:42:52;;;;;;;;;;;8.70;50.40;;;;;;5032683;28;19931;-63
2021/04/27 00:45:20;;;;;;;;;;;8.70;50.40;;;;;;5033187;28;19926;-64
2021/04/27 00:47:46;;;;;;;;;;;8.70;50.30;;;;;;5032960;28;19929;-63
2021/04/27 00:50:14;;;;;;;;;;;8.70;50.20;;;;;;5032717;28;20673;-63
2021/04/27 00:52:42;;;;;;;;;;;8.60;50.20;;;;;;5033146;28;20351;-63
2021/04/27 00:55:10;;;;;;;;;;;8.60;50.30;;;;;;5032520;28;19933;-63
2021/04/27 00:57:37;;;;;;;;;;;8.60;50.40;;;;;;5032783;28;19932;-64
2021/04/27 01:00:04;;;;;;;;;;;8.60;50.50;;;;;;5032590;28;19929;-63
2021/04/27 01:02:31;;;;;;;;;;;8.60;50.60;;;;;;5032838;28;19929;-63
2021/04/27 01:04:57;;;;;;;;;;;8.60;50.60;;;;;;5032636;28;19925;-63
2021/04/27 01:07:28;;;;;;;;;;;8.50;50.50;;;;;;5032838;28;19937;-63
2021/04/27 01:09:58;;;;;;;;;;;8.60;50.70;;;;;;5032487;28;19936;-63
2021/04/27 01:12:27;;;;;;;;;;;8.50;50.60;;;;;;5036121;28;20352;-63
2021/04/27 01:15:00;;;;;;;;;;;8.50;50.60;;;;;;5036639;28;19931;-63
2021/04/27 01:17:26;;;;;;;;;;;8.50;50.50;;;;;;5036512;28;19925;-63
2021/04/27 01:19:57;;;;;;;;;;;8.50;50.50;;;;;;5036394;28;19926;-63
2021/04/27 01:22:28;;;;;;;;;;;8.40;50.60;;;;;;5026606;28;20311;-63
2021/04/27 01:24:56;;;;;;;;;;;8.40;50.90;;;;;;5016522;28;19925;-63
2021/04/27 01:27:24;;;;;;;;;;;8.40;50.90;;;;;;5016784;28;19925;-63
2021/04/27 01:29:50;;;;;;;;;;;8.30;50.90;;;;;;5032080;28;20264;-63
2021/04/27 01:32:17;;;;;;;;;;;8.30;51.10;;;;;;5036231;28;20617;-63
2021/04/27 01:34:46;;;;;;;;;;;8.30;51.20;;;;;;5036451;28;19925;-63
2021/04/27 01:37:13;;;;;;;;;;;8.20;51.50;;;;;;5035812;28;19983;-63
2021/04/27 01:39:40;;;;;;;;;;;8.20;51.60;;;;;;5036354;28;20351;-63
2021/04/27 01:42:07;;;;;;;;;;;8.20;51.70;;;;;;5035807;28;19925;-63
2021/04/27 01:44:36;;;;;;;;;;;8.20;51.70;;;;;;5036445;28;19987;-63
2021/04/27 01:47:03;;;;;;;;;;;8.20;51.60;;;;;;5035702;28;19925;-63
2021/04/27 01:49:30;;;;;;;;;;;8.20;51.80;;;;;;5036117;28;19925;-64
2021/04/27 01:51:57;;;;;;;;;;;8.10;51.50;;;;;;5035885;28;19925;-64
2021/04/27 01:54:23;;;;;;;;;;;8.10;51.60;;;;;;5035834;28;19925;-64
2021/04/27 01:56:50;;;;;;;;;;;8.00;51.60;;;;;;5035883;28;19940;-64
2021/04/27 01:59:16;;;;;;;;;;;8.00;51.90;;;;;;5035514;28;19929;-64
2021/04/27 02:01:43;;;;;;;;;;;8.00;51.80;;;;;;5036085;28;20249;-64
2021/04/27 02:04:11;;;;;;;;;;;7.90;51.50;;;;;;5034862;28;20632;-63
2021/04/27 02:06:38;;;;;;;;;;;7.90;51.50;;;;;;5035836;28;19929;-64
2021/04/27 02:09:05;;;;;;;;;;;7.90;51.20;;;;;;5035394;28;20261;-64
2021/04/27 02:11:34;;;;;;;;;;;7.90;51.10;;;;;;5035952;28;19925;-63
2021/04/27 02:14:01;;;;;;;;;;;7.90;51.10;;;;;;5035380;28;20319;-63
2021/04/27 02:16:29;;;;;;;;;;;7.80;51.00;;;;;;5035540;28;19987;-63
2021/04/27 02:18:57;;;;;;;;;;;7.80;50.90;;;;;;5035419;28;19925;-62
2021/04/27 02:21:25;;;;;;;;;;;7.80;51.10;;;;;;5035466;28;20075;-63
2021/04/27 02:23:52;;;;;;;;;;;7.80;50.90;;;;;;5034668;28;19936;-64
2021/04/27 02:26:20;;;;;;;;;;;7.70;51.10;;;;;;5035302;28;19925;-64
2021/04/27 02:28:47;;;;;;;;;;;7.70;51.10;;;;;;5035413;28;19936;-64
2021/04/27 02:31:14;;;;;;;;;;;7.70;50.80;;;;;;5035106;28;19925;-64
2021/04/27 02:33:40;;;;;;;;;;;7.70;50.50;;;;;;5035441;28;19936;-64
2021/04/27 02:36:07;;;;;;;;;;;7.70;50.50;;;;;;5034905;28;19971;-62
2021/04/27 02:38:34;;;;;;;;;;;7.60;51.10;;;;;;5035166;28;19925;-62
2021/04/27 02:41:00;;;;;;;;;;;7.60;50.60;;;;;;5034966;28;20252;-63
2021/04/27 02:43:27;;;;;;;;;;;7.60;50.60;;;;;;5035152;28;19940;-63
2021/04/27 02:45:54;;;;;;;;;;;7.50;50.50;;;;;;5035296;28;20080;-63
2021/04/27 02:48:21;;;;;;;;;;;7.50;50.40;;;;;;5034569;28;19935;-64
2021/04/27 02:50:48;;;;;;;;;;;7.50;50.50;;;;;;5034962;28;19925;-63
2021/04/27 02:53:16;;;;;;;;;;;7.40;50.40;;;;;;5034664;28;19925;-64
2021/04/27 02:55:42;;;;;;;;;;;7.50;50.50;;;;;;5034837;28;19978;-63
2021/04/27 02:58:08;;;;;;;;;;;7.40;50.60;;;;;;5034193;28;19925;-63
2021/04/27 03:00:35;;;;;;;;;;;7.40;50.60;;;;;;5034992;28;19932;-64
2021/04/27 03:03:02;;;;;;;;;;;7.40;50.70;;;;;;5034534;28;20183;-64
2021/04/27 03:05:28;;;;;;;;;;;7.40;50.70;;;;;;5034720;28;19926;-64
2021/04/27 03:07:54;;;;;;;;;;;7.40;50.50;;;;;;5034867;28;19932;-64
2021/04/27 03:10:22;;;;;;;;;;;7.40;50.50;;;;;;5034183;28;19929;-64
2021/04/27 03:12:51;;;;;;;;;;;7.40;50.50;;;;;;5034658;28;19925;-64
2021/04/27 03:15:20;;;;;;;;;;;7.30;50.50;;;;;;5034154;28;20233;-63
2021/04/27 03:17:47;;;;;;;;;;;7.30;50.50;;;;;;5034524;28;19995;-64
2021/04/27 03:20:14;;;;;;;;;;;7.30;50.60;;;;;;5034022;28;19987;-63
2021/04/27 03:22:41;;;;;;;;;;;7.40;50.70;;;;;;5034398;28;19925;-63
2021/04/27 03:25:08;;;;;;;;;;;7.30;50.30;;;;;;5033849;28;19925;-63
2021/04/27 03:27:35;;;;;;;;;;;7.30;50.30;;;;;;5034476;28;19933;-64
2021/04/27 03:30:03;;;;;;;;;;;7.30;50.40;;;;;;5033966;28;19995;-63
2021/04/27 03:32:29;;;;;;;;;;;7.30;50.50;;;;;;5034472;28;20382;-64
2021/04/27 03:34:56;;;;;;;;;;;7.30;50.60;;;;;;5033176;28;19929;-63
2021/04/27 03:37:22;;;;;;;;;;;7.30;50.60;;;;;;5033624;28;19925;-64
2021/04/27 03:39:49;;;;;;;;;;;7.30;50.20;;;;;;5033942;28;19928;-64
2021/04/27 03:42:15;;;;;;;;;;;7.20;49.90;;;;;;5033649;28;19936;-64
2021/04/27 03:44:42;;;;;;;;;;;7.20;50.20;;;;;;5033960;28;19932;-63
2021/04/27 03:47:09;;;;;;;;;;;7.20;50.30;;;;;;5033382;28;19925;-63
2021/04/27 03:49:35;;;;;;;;;;;7.20;50.50;;;;;;5034035;28;19925;-64
2021/04/27 03:52:02;;;;;;;;;;;7.20;50.30;;;;;;5033449;28;19932;-63
2021/04/27 03:54:29;;;;;;;;;;;7.20;50.30;;;;;;5033684;28;20259;-63
2021/04/27 03:56:55;;;;;;;;;;;7.20;50.20;;;;;;5033650;28;19929;-63
2021/04/27 03:59:21;;;;;;;;;;;7.10;50.30;;;;;;5033271;28;19932;-64
2021/04/27 04:01:49;;;;;;;;;;;7.10;50.10;;;;;;5033943;28;19925;-63
2021/04/27 04:04:15;;;;;;;;;;;7.20;50.10;;;;;;5033422;28;19925;-64
2021/04/27 04:06:41;;;;;;;;;;;7.10;50.00;;;;;;5033531;28;19932;-63
2021/04/27 04:09:08;;;;;;;;;;;7.20;50.20;;;;;;5033200;28;19924;-62
2021/04/27 04:11:35;;;;;;;;;;;7.20;50.40;;;;;;5033646;28;20371;-64
2021/04/27 04:14:02;;;;;;;;;;;7.20;50.40;;;;;;5033685;28;19925;-63
2021/04/27 04:16:28;;;;;;;;;;;7.20;50.30;;;;;;5033366;28;21180;-63
2021/04/27 04:18:56;;;;;;;;;;;7.20;50.40;;;;;;5033448;28;20378;-64
2021/04/27 04:21:23;;;;;;;;;;;7.30;50.50;;;;;;5032671;28;19925;-63
2021/04/27 04:23:49;;;;;;;;;;;7.20;50.10;;;;;;5013591;28;19936;-64
2021/04/27 04:26:15;;;;;;;;;;;7.20;50.20;;;;;;5013204;28;19964;-63
2021/04/27 04:28:42;;;;;;;;;;;7.20;50.40;;;;;;5019410;28;19925;-64
2021/04/27 04:31:08;;;;;;;;;;;7.20;50.60;;;;;;5033135;28;20287;-63
2021/04/27 04:33:35;;;;;;;;;;;7.20;50.50;;;;;;5033243;28;19925;-63
2021/04/27 04:36:02;;;;;;;;;;;7.30;50.50;;;;;;5033258;28;19932;-63
2021/04/27 04:38:29;;;;;;;;;;;7.30;50.30;;;;;;5032709;28;19925;-63
2021/04/27 04:40:57;;;;;;;;;;;7.30;50.20;;;;;;5033029;28;19925;-64
2021/04/27 04:43:23;;;;;;;;;;;7.40;50.30;;;;;;5032910;28;20414;-63
2021/04/27 04:45:50;;;;;;;;;;;7.40;50.10;;;;;;5032879;28;19929;-64
2021/04/27 04:48:16;;;;;;;;;;;7.40;50.10;;;;;;5032545;28;20267;-64
2021/04/27 04:50:42;;;;;;;;;;;7.50;50.10;;;;;;5033290;28;19948;-63
2021/04/27 04:53:09;;;;;;;;;;;7.50;50.00;;;;;;5032742;28;19925;-63
2021/04/27 04:55:36;;;;;;;;;;;7.60;50.00;;;;;;5032881;28;19925;-62
2021/04/27 04:58:03;;;;;;;;;;;7.60;50.00;;;;;;5032804;28;19956;-62
2021/04/27 05:00:33;;;;;;;;;;;7.60;50.00;;;;;;5032506;28;19936;-63
2021/04/27 05:03:00;;;;;;;;;;;7.70;50.00;;;;;;5032851;28;19983;-62
2021/04/27 05:05:26;;;;;;;;;;;7.70;49.90;;;;;;5032649;28;19926;-63
2021/04/27 05:08:00;;;;;;;;;;;7.80;49.80;;;;;;5032805;28;19944;-63
2021/04/27 05:10:27;;;;;;;;;;;7.80;49.80;;;;;;5032494;28;20347;-62
2021/04/27 05:12:53;;;;;;;;;;;7.80;49.50;;;;;;5033146;28;20268;-62
2021/04/27 05:15:19;;;;;;;;;;;7.90;49.60;;;;;;5032436;28;20148;-62
2021/04/27 05:17:46;;;;;;;;;;;7.90;49.20;;;;;;5032822;28;20310;-63
2021/04/27 05:20:13;;;;;;;;;;;8.00;49.10;;;;;;5032535;28;19925;-63
2021/04/27 05:22:39;;;;;;;;;;;8.00;49.10;;;;;;5032721;28;19925;-64
2021/04/27 05:25:06;;;;;;;;;;;8.00;49.00;;;;;;5032778;28;19933;-64
2021/04/27 05:27:33;;;;;;;;;;;8.10;49.20;;;;;;5032300;28;19925;-63
2021/04/27 05:29:59;;;;;;;;;;;8.10;49.10;;;;;;5032653;28;19925;-63
2021/04/27 05:32:26;;;;;;;;;;;8.20;49.00;;;;;;5032286;28;19929;-63
2021/04/27 05:34:52;;;;;;;;;;;8.20;49.10;;;;;;5032660;28;19925;-64
2021/04/27 05:37:18;;;;;;;;;;;8.30;49.00;;;;;;5032230;28;20295;-64
2021/04/27 05:39:45;;;;;;;;;;;8.40;48.80;;;;;;5032540;28;19925;-64
2021/04/27 05:42:11;;;;;;;;;;;8.40;48.80;;;;;;5032191;28;19929;-64
2021/04/27 05:44:38;;;;;;;;;;;8.40;48.50;;;;;;5032446;28;19925;-64
2021/04/27 05:47:04;;;;;;;;;;;8.50;48.70;;;;;;5032610;28;19936;-63
2021/04/27 05:49:31;;;;;;;;;;;8.50;48.70;;;;;;5032151;28;19944;-64
2021/04/27 05:51:57;;;;;;;;;;;8.60;48.90;;;;;;5032758;28;20067;-64
2021/04/27 05:54:24;;;;;;;;;;;8.70;49.00;;;;;;5031781;28;19948;-62
2021/04/27 05:56:50;;;;;;;;;;;8.70;48.90;;;;;;5032255;28;19936;-62
2021/04/27 05:59:17;;;;;;;;;;;8.80;48.60;;;;;;5034784;28;19929;-63
2021/04/27 06:01:44;;;;;;;;;;;8.80;48.60;;;;;;5018051;28;20329;-63
2021/04/27 06:04:10;;;;;;;;;;;8.90;48.70;;;;;;5015968;28;20264;-63
2021/04/27 06:06:37;;;;;;;;;;;8.90;48.60;;;;;;5015847;28;19925;-63
2021/04/27 06:09:04;;;;;;;;;;;9.00;48.30;;;;;;5016059;28;19926;-63
2021/04/27 06:11:30;;;;;;;;;;;9.00;48.20;;;;;;5015615;28;19983;-63
2021/04/27 06:13:57;;;;;;;;;;;9.10;48.30;;;;;;5016049;28;19925;-63
2021/04/27 06:16:24;;;;;;;;;;;9.20;47.90;;;;;;5015381;28;19961;-63
2021/04/27 06:18:52;;;;;;;;;;;9.20;47.90;;;;;;5015844;28;19970;-64
2021/04/27 06:21:18;;;;;;;;;;;9.30;47.90;;;;;;5015498;28;19936;-63
2021/04/27 06:23:45;;;;;;;;;;;9.30;47.60;;;;;;5015713;28;19979;-63
2021/04/27 06:26:11;;;;;;;;;;;9.30;47.30;;;;;;5015800;28;20199;-64
2021/04/27 06:28:38;;;;;;;;;;;9.40;47.30;;;;;;5020626;28;19925;-64
2021/04/27 06:31:04;;;;;;;;;;;9.50;47.50;;;;;;5035444;28;20006;-63
2021/04/27 06:33:30;;;;;;;;;;;9.50;47.40;;;;;;5035207;28;19936;-63
2021/04/27 06:35:58;;;;;;;;;;;9.60;47.20;;;;;;5035238;28;19925;-64
2021/04/27 06:38:24;;;;;;;;;;;9.70;47.10;;;;;;5034739;28;19936;-64
2021/04/27 06:40:51;;;;;;;;;;;9.80;46.60;;;;;;5035391;28;19929;-64
2021/04/27 06:43:18;;;;;;;;;;;9.80;46.10;;;;;;5034811;28;19987;-64
2021/04/27 06:45:44;;;;;;;;;;;9.80;46.10;;;;;;5035155;28;19925;-64
2021/04/27 06:48:11;;;;;;;;;;;9.90;46.20;;;;;;5035128;28;19925;-63
2021/04/27 06:50:38;;;;;;;;;;;9.90;46.00;;;;;;5034681;28;20334;-64
2021/04/27 06:53:05;;;;;;;;;;;10.00;45.20;;;;;;5035168;28;19925;-64
2021/04/27 06:55:32;;;;;;;;;;;10.10;44.90;;;;;;5034569;28;19925;-64
2021/04/27 06:58:01;;;;;;;;;;;10.10;44.30;;;;;;5034691;28;19987;-64
2021/04/27 07:00:28;;;;;;;;;;;10.20;44.30;;;;;;5034495;28;19936;-64
2021/04/27 07:02:54;;;;;;;;;;;10.20;43.70;;;;;;5034686;28;20348;-63
2021/04/27 07:05:20;;;;;;;;;;;10.30;43.40;;;;;;5034308;28;19936;-63
2021/04/27 07:07:47;;;;;;;;;;;10.40;43.40;;;;;;5034830;28;19925;-63
2021/04/27 07:10:14;;;;;;;;;;;10.50;43.60;;;;;;5034327;28;20275;-64
2021/04/27 07:12:40;;;;;;;;;;;10.60;43.40;;;;;;5034207;28;19925;-64
2021/04/27 07:15:07;;;;;;;;;;;10.80;43.50;;;;;;5034704;28;20000;-63
2021/04/27 07:17:33;;;;;;;;;;;10.80;42.50;;;;;;5034271;28;19925;-63
2021/04/27 07:20:00;;;;;;;;;;;11.00;42.70;;;;;;5034519;28;20387;-64
2021/04/27 07:22:27;;;;;;;;;;;11.20;42.60;;;;;;5034113;28;19929;-64
2021/04/27 07:24:54;;;;;;;;;;;11.20;41.70;;;;;;5034419;28;19947;-64
2021/04/27 07:27:21;;;;;;;;;;;11.40;42.10;;;;;;5034090;28;19929;-64
2021/04/27 07:29:47;;;;;;;;;;;11.50;41.60;;;;;;5034281;28;19925;-63
2021/04/27 07:32:14;;;;;;;;;;;11.50;41.00;;;;;;5034226;28;19948;-64
2021/04/27 07:34:40;;;;;;;;;;;11.60;40.50;;;;;;5033987;28;20352;-64
2021/04/27 07:37:07;;;;;;;;;;;11.60;40.30;;;;;;5033828;28;19935;-64
2021/04/27 07:39:33;;;;;;;;;;;11.70;39.90;;;;;;5033741;28;19925;-63
2021/04/27 07:42:01;;;;;;;;;;;11.70;40.00;;;;;;5034220;28;19929;-64
2021/04/27 07:44:28;;;;;;;;;;;11.80;40.20;;;;;;5033548;28;19926;-64
2021/04/27 07:46:54;;;;;;;;;;;11.90;40.50;;;;;;5033876;28;19932;-64
2021/04/27 07:49:21;;;;;;;;;;;11.90;39.80;;;;;;5033430;28;19925;-64
2021/04/27 07:51:47;;;;;;;;;;;11.80;39.10;;;;;;5033865;28;20230;-63
2021/04/27 07:54:13;;;;;;;;;;;11.80;39.20;;;;;;5033787;28;19932;-64
2021/04/27 07:56:40;;;;;;;;;;;11.80;39.70;;;;;;5033365;28;19933;-64
2021/04/27 07:59:06;;;;;;;;;;;11.90;39.80;;;;;;5033955;28;19932;-63
2021/04/27 08:01:34;;;;;;;;;;;12.00;39.80;;;;;;5033250;28;19975;-63
2021/04/27 08:04:00;;;;;;;;;;;12.20;39.40;;;;;;5033637;28;20359;-62
2021/04/27 08:06:27;;;;;;;;;;;12.10;38.60;;;;;;5033127;28;19935;-63
2021/04/27 08:08:53;;;;;;;;;;;12.20;39.10;;;;;;5033663;28;19925;-63
2021/04/27 08:11:20;;;;;;;;;;;12.20;38.60;;;;;;5033561;28;19929;-62
2021/04/27 08:13:47;;;;;;;;;;;12.20;38.30;;;;;;5032886;28;19936;-63
2021/04/27 08:16:13;;;;;;;;;;;12.30;38.10;;;;;;5033636;28;19925;-63
2021/04/27 08:18:41;;;;;;;;;;;12.40;37.30;;;;;;5033217;28;19929;-63
2021/04/27 08:21:08;;;;;;;;;;;12.40;36.90;;;;;;5032804;28;19932;-63
2021/04/27 08:23:35;;;;;;;;;;;12.30;37.00;;;;;;5033048;28;20370;-63
2021/04/27 08:26:05;;;;;;;;;;;12.30;37.00;;;;;;5033227;28;19929;-64
2021/04/27 08:28:32;;;;;;;;;;;12.40;37.30;;;;;;5032522;28;19925;-63
2021/04/27 08:30:58;;;;;;;;;;;12.50;36.10;;;;;;5033366;28;19925;-63
2021/04/27 08:33:25;;;;;;;;;;;12.50;35.70;;;;;;5032814;28;19925;-64
2021/04/27 08:35:52;;;;;;;;;;;12.50;35.60;;;;;;5033042;28;19925;-63
2021/04/27 08:38:19;;;;;;;;;;;12.60;35.10;;;;;;5031454;28;19929;-64
2021/04/27 08:40:45;;;;;;;;;;;12.70;35.70;;;;;;5031715;28;19925;-64
2021/04/27 08:43:14;;;;;;;;;;;12.70;35.40;;;;;;5032540;28;19926;-64
2021/04/27 08:45:40;;;;;;;;;;;12.70;35.70;;;;;;5032592;28;19925;-62
2021/04/27 08:48:08;;;;;;;;;;;12.80;35.60;;;;;;5032965;28;19925;-62
2021/04/27 08:50:35;;;;;;;;;;;12.80;35.40;;;;;;5032789;28;20023;-65
2021/04/27 08:53:02;;;;;;;;;;;12.90;35.30;;;;;;5033006;28;20356;-63
2021/04/27 08:55:28;;;;;;;;;;;12.90;35.20;;;;;;5032581;28;19925;-62
2021/04/27 08:57:57;;;;;;;;;;;12.90;35.60;;;;;;5032787;28;19987;-62
2021/04/27 09:00:25;;;;;;;;;;;12.90;35.00;;;;;;5026698;28;19925;-63
2021/04/27 09:02:57;;;;;;;;;;;12.80;34.60;;;;;;5012739;28;19925;-64
2021/04/27 09:05:25;;;;;;;;;;;12.90;35.00;;;;;;5013218;28;20327;-63
2021/04/27 09:07:52;;;;;;;;;;;12.90;34.90;;;;;;5017304;28;19925;-63
2021/04/27 09:10:20;;;;;;;;;;;12.80;35.10;;;;;;5032780;28;19925;-63
2021/04/27 09:12:47;;;;;;;;;;;12.80;34.80;;;;;;5028052;28;19926;-62
2021/04/27 09:15:23;;;;;;;;;;;12.80;34.80;;;;;;5013069;28;19991;-63
2021/04/27 09:17:49;;;;;;;;;;;12.90;34.90;;;;;;5012624;28;19926;-62
2021/04/27 09:20:15;;;;;;;;;;;12.80;34.70;;;;;;5024285;28;19925;-62
2021/04/27 09:22:43;;;;;;;;;;;12.80;33.80;;;;;;5032265;28;20322;-62
2021/04/27 09:25:10;;;;;;;;;;;12.80;33.40;;;;;;5032515;28;19945;-63
2021/04/27 09:27:38;;;;;;;;;;;12.80;33.70;;;;;;5032443;28;19975;-64
2021/04/27 09:30:12;;;;;;;;;;;12.80;34.20;;;;;;5032540;28;19991;-64
2021/04/27 09:32:39;;;;;;;;;;;12.80;33.90;;;;;;5033166;28;19936;-63
2021/04/27 09:35:30;;;;;;;;;;;12.80;33.60;;;;;;5036562;28;19990;-63
2021/04/27 09:38:06;;;;;;;;;;;12.80;33.90;;;;;;5016436;28;19930;-63
2021/04/27 09:40:35;;;;;;;;;;;12.80;34.60;;;;;;5016253;28;19925;-63
2021/04/27 09:43:03;;;;;;;;;;;12.80;35.30;;;;;;5016274;28;19983;-63
2021/04/27 09:45:38;;;;;;;;;;;12.80;34.60;;;;;;5016214;28;19936;-63
2021/04/27 09:48:05;;;;;;;;;;;12.90;34.70;;;;;;5015204;28;20055;-64
2021/04/27 09:50:32;;;;;;;;;;;13.00;34.70;;;;;;5016434;28;19925;-64
2021/04/27 09:52:58;;;;;;;;;;;13.00;34.00;;;;;;5015955;28;20259;-64
2021/04/27 09:55:25;;;;;;;;;;;13.00;34.50;;;;;;5016432;28;19937;-64
2021/04/27 09:57:52;;;;;;;;;;;13.00;34.60;;;;;;5015663;28;20025;-64
2021/04/27 10:00:20;;;;;;;;;;;13.10;33.90;;;;;;5016047;28;19957;-64
2021/04/27 10:02:47;;;;;;;;;;;13.30;33.90;;;;;;5015803;28;19944;-64
2021/04/27 10:05:13;;;;;;;;;;;13.30;33.30;;;;;;5016092;28;19925;-64
2021/04/27 10:07:41;;;;;;;;;;;13.20;33.80;;;;;;5015824;28;20107;-65
2021/04/27 10:10:08;;;;;;;;;;;13.10;33.90;;;;;;5015717;28;20689;-64
2021/04/27 10:12:35;;;;;;;;;;;13.20;33.10;;;;;;5015904;28;19953;-64
2021/04/27 10:15:02;;;;;;;;;;;13.20;32.60;;;;;;5015450;28;19929;-64
2021/04/27 10:17:32;;;;;;;;;;;13.20;33.10;;;;;;5015950;28;19932;-64
2021/04/27 10:19:58;;;;;;;;;;;13.10;33.20;;;;;;5015127;28;19936;-64
2021/04/27 10:22:27;;;;;;;;;;;13.10;33.80;;;;;;5015515;28;19925;-64
2021/04/27 10:24:53;;;;;;;;;;;13.10;33.70;;;;;;5015441;28;20017;-63
2021/04/27 10:27:23;;;;;;;;;;;13.20;33.60;;;;;;5015845;28;20423;-64
2021/04/27 10:29:54;;;;;;;;;;;13.20;33.40;;;;;;5015072;28;19933;-64
2021/04/27 10:32:21;;;;;;;;;;;13.30;33.50;;;;;;5015621;28;20004;-63
2021/04/27 10:35:09;;;;;;;;;;;13.40;33.30;;;;;;5015194;28;19933;-64
2021/04/27 10:37:54;;;;;;;;;;;13.40;32.80;;;;;;5005971;28;19956;-64
2021/04/27 10:40:35;;;;;;;;;;;13.40;32.90;;;;;;5015007;28;19940;-64
2021/04/27 10:43:29;;;;;;;;;;;13.30;32.70;;;;;;5021544;28;19933;-64
2021/04/27 10:45:56;;;;;;;;;;;13.30;33.00;;;;;;5013760;28;19925;-64
2021/04/27 10:48:26;;;;;;;;;;;13.40;32.70;;;;;;5021029;28;20279;-64
2021/04/27 10:50:54;;;;;;;;;;;13.40;32.30;;;;;;5022667;28;19926;-64
2021/04/27 10:53:31;;;;;;;;;;;13.40;32.30;;;;;;5015090;28;20392;-64
2021/04/27 10:55:57;;;;;;;;;;;13.40;32.00;;;;;;5019220;28;19925;-64
2021/04/27 10:58:43;;;;;;;;;;;13.50;32.20;;;;;;5025838;28;19937;-64
2021/04/27 11:01:17;;;;;;;;;;;13.50;32.10;;;;;;5024273;28;20385;-64
2021/04/27 11:03:48;;;;;;;;;;;13.60;31.90;;;;;;5034156;28;19925;-63
2021/04/27 11:06:15;;;;;;;;;;;13.60;31.80;;;;;;5034165;28;20249;-63
2021/04/27 11:08:50;;;;;;;;;;;13.70;31.60;;;;;;5034222;28;20375;-64
2021/04/27 11:11:18;;;;;;;;;;;13.80;31.70;;;;;;5034366;28;19929;-64
2021/04/27 11:13:44;;;;;;;;;;;13.80;32.00;;;;;;5034299;28;19929;-64
2021/04/27 11:16:24;;;;;;;;;;;13.90;32.30;;;;;;5033961;28;19926;-64
2021/04/27 11:18:51;;;;;;;;;;;14.00;32.70;;;;;;5034265;28;19925;-64
2021/04/27 11:21:19;;;;;;;;;;;14.00;32.30;;;;;;5033803;28;19952;-64
2021/04/27 11:23:51;;;;;;;;;;;14.00;32.30;;;;;;5033997;28;19925;-64
2021/04/27 11:26:36;;;;;;;;;;;14.00;32.60;;;;;;5033605;28;19931;-64
2021/04/27 11:29:06;;;;;;;;;;;13.90;32.90;;;;;;5022633;28;19925;-64
2021/04/27 11:31:51;;;;;;;;;;;14.00;33.10;;;;;;5034098;28;19936;-64
2021/04/27 11:34:17;;;;;;;;;;;14.00;33.80;;;;;;5033890;28;20268;-64
2021/04/27 11:36:45;;;;;;;;;;;14.10;33.40;;;;;;5033092;28;19948;-64
2021/04/27 11:39:11;;;;;;;;;;;14.20;33.40;;;;;;5033556;28;19932;-64
2021/04/27 11:41:44;;;;;;;;;;;14.10;33.40;;;;;;5033926;28;19925;-64
2021/04/27 11:44:11;;;;;;;;;;;14.20;33.20;;;;;;5032964;28;20391;-64
2021/04/27 11:46:57;;;;;;;;;;;14.10;33.00;;;;;;5029853;28;19925;-64
2021/04/27 11:49:44;;;;;;;;;;;14.10;33.40;;;;;;5026028;28;19975;-64
2021/04/27 11:52:14;;;;;;;;;;;14.10;33.60;;;;;;5022062;28;19925;-63
2021/04/27 11:54:41;;;;;;;;;;;14.10;33.90;;;;;;5033169;28;19944;-63
2021/04/27 11:57:15;;;;;;;;;;;14.20;34.10;;;;;;5032104;28;19929;-62
2021/04/27 11:59:42;;;;;;;;;;;14.30;33.90;;;;;;5033345;28;19936;-64
2021/04/27 12:02:09;;;;;;;;;;;14.30;33.80;;;;;;5033559;28;20271;-64
2021/04/27 12:04:35;;;;;;;;;;;14.40;33.50;;;;;;5033373;28;20004;-63
2021/04/27 12:07:03;;;;;;;;;;;14.40;33.00;;;;;;5033077;28;19933;-64
2021/04/27 12:09:42;;;;;;;;;;;14.30;33.20;;;;;;5032373;28;19925;-62
2021/04/27 12:12:09;;;;;;;;;;;14.30;33.30;;;;;;5033021;28;20004;-62
2021/04/27 12:14:36;;;;;;;;;;;14.40;33.30;;;;;;5033285;28;20249;-64
2021/04/27 12:17:05;;;;;;;;;;;14.40;33.20;;;;;;5032487;28;19925;-62
2021/04/27 12:19:32;;;;;;;;;;;14.50;33.40;;;;;;5020106;28;19937;-64
2021/04/27 12:22:03;;;;;;;;;;;14.60;33.50;;;;;;5032892;28;19925;-64
2021/04/27 12:24:30;;;;;;;;;;;14.50;33.20;;;;;;5032997;28;19936;-64
2021/04/27 12:27:00;;;;;;;;;;;14.60;33.10;;;;;;5033031;28;19935;-63
2021/04/27 12:29:29;;;;;;;;;;;14.60;32.90;;;;;;5031834;28;19925;-64
2021/04/27 12:31:55;;;;;;;;;;;14.50;32.70;;;;;;5033047;28;19987;-64
2021/04/27 12:34:22;;;;;;;;;;;14.50;32.70;;;;;;5032801;28;20291;-64
2021/04/27 12:36:49;;;;;;;;;;;14.60;33.10;;;;;;5032570;28;19951;-64
2021/04/27 12:39:27;;;;;;;;;;;14.60;33.10;;;;;;5032283;28;19979;-64
2021/04/27 12:41:54;;;;;;;;;;;14.70;32.80;;;;;;5032865;28;19932;-62
2021/04/27 12:44:29;;;;;;;;;;;14.50;32.40;;;;;;5032514;28;19986;-63
2021/04/27 12:46:55;;;;;;;;;;;14.60;32.80;;;;;;5032835;28;20360;-64
2021/04/27 12:49:26;;;;;;;;;;;14.60;32.60;;;;;;5032139;28;20271;-64
2021/04/27 12:52:01;;;;;;;;;;;14.70;32.60;;;;;;5032628;28;19951;-64
2021/04/27 12:54:28;;;;;;;;;;;14.70;32.60;;;;;;5031671;28;20296;-63
2021/04/27 12:57:08;;;;;;;;;;;14.70;32.50;;;;;;5032593;28;19936;-64
2021/04/27 12:59:35;;;;;;;;;;;14.70;32.70;;;;;;5032374;28;20387;-64
2021/04/27 13:02:05;;;;;;;;;;;14.70;32.50;;;;;;5031560;28;19933;-64
2021/04/27 13:04:37;;;;;;;;;;;14.70;32.70;;;;;;5032094;28;19936;-63
2021/04/27 13:07:04;;;;;;;;;;;14.70;32.70;;;;;;5032402;28;19925;-63
2021/04/27 13:09:30;;;;;;;;;;;14.60;32.60;;;;;;5036468;28;19936;-63
2021/04/27 13:11:57;;;;;;;;;;;14.60;32.80;;;;;;5015572;28;20368;-63
2021/04/27 13:14:24;;;;;;;;;;;14.60;33.00;;;;;;5028942;28;20229;-63
2021/04/27 13:16:52;;;;;;;;;;;14.60;33.10;;;;;;5023552;28;19932;-63
2021/04/27 13:19:20;;;;;;;;;;;14.70;33.10;;;;;;5035109;28;19933;-64
2021/04/27 13:22:02;;;;;;;;;;;14.60;32.70;;;;;;5036751;28;20261;-64
2021/04/27 13:24:35;;;;;;;;;;;14.60;32.70;;;;;;5034256;28;19936;-64
2021/04/27 13:27:03;;;;;;;;;;;14.70;33.00;;;;;;5036312;28;19984;-63
2021/04/27 13:29:33;;;;;;;;;;;14.80;32.90;;;;;;5035837;28;20371;-64
2021/04/27 13:32:11;;;;;;;;;;;14.70;32.70;;;;;;5028717;28;20110;-63
2021/04/27 13:34:37;;;;;;;;;;;14.80;32.80;;;;;;5035966;28;19925;-62
2021/04/27 13:37:05;;;;;;;;;;;14.70;32.80;;;;;;5025606;28;20348;-63
2021/04/27 13:39:31;;;;;;;;;;;14.70;32.70;;;;;;5035532;28;19925;-63
2021/04/27 13:42:00;;;;;;;;;;;14.70;33.10;;;;;;5036268;28;19932;-64
2021/04/27 13:44:26;;;;;;;;;;;14.70;33.20;;;;;;5035625;28;20274;-64
2021/04/27 13:46:55;;;;;;;;;;;14.70;33.30;;;;;;5035151;28;19956;-64
2021/04/27 13:49:22;;;;;;;;;;;14.70;33.30;;;;;;5016345;28;19960;-63
2021/04/27 13:51:49;;;;;;;;;;;14.60;33.00;;;;;;5035796;28;19936;-65
2021/04/27 13:54:15;;;;;;;;;;;14.70;33.30;;;;;;5018335;28;19937;-63
2021/04/27 13:56:42;;;;;;;;;;;14.60;33.10;;;;;;5026933;28;19925;-64
2021/04/27 13:59:08;;;;;;;;;;;14.70;33.30;;;;;;5027603;28;19975;-64
2021/04/27 14:01:36;;;;;;;;;;;14.80;33.30;;;;;;5018276;28;19933;-63
2021/04/27 14:04:03;;;;;;;;;;;14.80;33.10;;;;;;5032627;28;19948;-63
2021/04/27 14:06:32;;;;;;;;;;;14.80;33.20;;;;;;5016517;28;19929;-63
2021/04/27 14:08:58;;;;;;;;;;;14.80;33.30;;;;;;5011092;28;20000;-63
2021/04/27 14:11:25;;;;;;;;;;;14.80;33.40;;;;;;5006260;28;20119;-65
2021/04/27 14:13:51;;;;;;;;;;;14.70;33.50;;;;;;5028821;28;19936;-63
2021/04/27 14:16:18;;;;;;;;;;;14.60;33.30;;;;;;5020534;28;19925;-63
2021/04/27 14:18:44;;;;;;;;;;;14.60;33.60;;;;;;5026099;28;20256;-63
2021/04/27 14:21:11;;;;;;;;;;;14.70;33.80;;;;;;5009378;28;19954;-63
2021/04/27 14:23:38;;;;;;;;;;;14.60;34.00;;;;;;5030830;28;19936;-64
2021/04/27 14:26:06;;;;;;;;;;;14.70;34.10;;;;;;5035327;28;19925;-64
2021/04/27 14:28:32;;;;;;;;;;;14.70;34.20;;;;;;5034843;28;19925;-64